MIZ weather

Mainoru Airstrip
Mainoru, Northern Territory, Australia

Public forecast

Using degrees Celsius for public forecast. Weather courtesy of forecast.io.

METAR (pilot weather report)

Closest report is Tindal Airport, 103.7 nm (192.1 km) WSW. Retrieved 2019/05/24 06:30 UTC (0 seconds ago):

YPTN 240630Z AUTO 15005KT 110V170 9999 // SCT081 33/11 Q1011

TAF (pilot weather forecast)

Closest forecast is Tindal Airport, 103.7 nm (192.1 km) WSW. Retrieved 2019/05/24 06:00 UTC (30 minutes ago):

TAF YPTN 240512Z 2406/2506 13012KT CAVOK FM240900 11005KT CAVOK FM250000 12010KT CAVOK